Time;durP1;ratioP1;P1;durP2;ratioP2;P2;SDS_P1;SDS_P2;PMS_P1;PMS_P2;Temp;Humidity;BMP_temperature;BMP_pressure;BME280_temperature;BME280_humidity;BME280_pressure;Samples;Min_cycle;Max_cycle;Signal;HPM_P1;HPM_P2
2022/03/24 00:00:23;;;;;;;15.70;8.07;;;;;;;;;;4954596;28;20471;-74
2022/03/24 00:02:49;;;;;;;24.80;9.48;;;;;;;;;;4953751;28;20448;-76
2022/03/24 00:05:15;;;;;;;18.27;8.40;;;;;;;;;;4950869;28;20118;-77
2022/03/24 00:07:41;;;;;;;26.95;8.48;;;;;;;;;;4954500;28;20110;-76
2022/03/24 00:10:08;;;;;;;20.38;7.97;;;;;;;;;;4954519;29;20050;-78
2022/03/24 00:12:34;;;;;;;20.80;8.23;;;;;;;;;;4942568;28;20047;-76
2022/03/24 00:15:02;;;;;;;18.63;7.68;;;;;;;;;;4954656;28;20039;-77
2022/03/24 00:17:28;;;;;;;20.50;7.70;;;;;;;;;;4954447;29;20039;-79
2022/03/24 00:19:54;;;;;;;15.63;7.72;;;;;;;;;;4953269;29;20035;-72
2022/03/24 00:22:20;;;;;;;15.30;8.18;;;;;;;;;;4954302;28;20493;-73
2022/03/24 00:24:46;;;;;;;17.80;9.18;;;;;;;;;;4952401;29;20125;-75
2022/03/24 00:27:11;;;;;;;18.27;9.93;;;;;;;;;;4953457;28;20102;-75
2022/03/24 00:29:38;;;;;;;36.58;11.25;;;;;;;;;;4952998;29;20109;-76
2022/03/24 00:32:04;;;;;;;20.73;9.68;;;;;;;;;;4952054;29;20024;-74
2022/03/24 00:34:31;;;;;;;24.98;10.80;;;;;;;;;;4953150;28;20402;-76
2022/03/24 00:36:56;;;;;;;21.08;11.63;;;;;;;;;;4948561;28;20039;-70
2022/03/24 00:39:22;;;;;;;21.58;10.57;;;;;;;;;;4953838;28;20136;-69
2022/03/24 00:41:48;;;;;;;18.95;10.57;;;;;;;;;;4953760;28;20430;-69
2022/03/24 00:44:14;;;;;;;16.63;9.80;;;;;;;;;;4953486;28;20039;-69
2022/03/24 00:46:40;;;;;;;20.60;11.43;;;;;;;;;;4953615;29;20038;-69
2022/03/24 00:49:06;;;;;;;20.63;10.15;;;;;;;;;;4953665;28;20047;-68
2022/03/24 00:51:32;;;;;;;19.90;11.10;;;;;;;;;;4953817;29;20390;-74
2022/03/24 00:53:58;;;;;;;21.92;11.23;;;;;;;;;;4953906;28;20042;-77
2022/03/24 00:56:23;;;;;;;18.02;9.27;;;;;;;;;;4938013;28;20106;-75
2022/03/24 00:58:49;;;;;;;18.25;9.63;;;;;;;;;;4933147;29;20040;-77
2022/03/24 01:01:15;;;;;;;26.80;12.23;;;;;;;;;;4941686;29;20027;-75
2022/03/24 01:03:43;;;;;;;19.80;10.90;;;;;;;;;;4953155;29;20093;-74
2022/03/24 01:06:10;;;;;;;22.05;10.13;;;;;;;;;;4955182;28;20034;-75
2022/03/24 01:08:36;;;;;;;19.50;9.13;;;;;;;;;;4950075;29;20401;-74
2022/03/24 01:11:07;;;;;;;18.40;9.45;;;;;;;;;;4953819;29;20079;-75
2022/03/24 01:13:34;;;;;;;17.13;9.60;;;;;;;;;;4952347;29;20035;-77
2022/03/24 01:16:01;;;;;;;20.55;11.25;;;;;;;;;;4953758;28;20485;-73
2022/03/24 01:18:29;;;;;;;20.10;10.25;;;;;;;;;;4953521;28;20039;-75
2022/03/24 01:20:54;;;;;;;15.52;8.10;;;;;;;;;;4952336;29;20063;-75
2022/03/24 01:23:23;;;;;;;12.25;6.70;;;;;;;;;;4952319;29;20051;-75
2022/03/24 01:25:49;;;;;;;13.45;6.00;;;;;;;;;;4953746;29;20382;-75
2022/03/24 01:28:15;;;;;;;11.40;6.07;;;;;;;;;;4952181;28;20474;-75
2022/03/24 01:30:41;;;;;;;12.43;5.60;;;;;;;;;;4951839;29;20042;-76
2022/03/24 01:33:08;;;;;;;11.60;5.57;;;;;;;;;;4951662;29;20581;-75
2022/03/24 01:35:34;;;;;;;11.18;5.43;;;;;;;;;;4952174;28;20028;-75
2022/03/24 01:38:03;;;;;;;10.82;5.15;;;;;;;;;;4951471;29;20114;-75
2022/03/24 01:40:29;;;;;;;9.88;4.88;;;;;;;;;;4952273;29;20027;-75
2022/03/24 01:42:55;;;;;;;8.65;4.22;;;;;;;;;;4953414;28;20039;-69
2022/03/24 01:45:21;;;;;;;11.88;4.40;;;;;;;;;;4952559;29;20389;-68
2022/03/24 01:47:47;;;;;;;8.05;4.00;;;;;;;;;;4953791;28;20059;-69
2022/03/24 01:50:15;;;;;;;9.80;4.47;;;;;;;;;;4955161;28;20023;-69
2022/03/24 01:52:44;;;;;;;7.50;3.95;;;;;;;;;;4955755;29;20031;-68
2022/03/24 01:55:11;;;;;;;12.55;4.25;;;;;;;;;;4955879;29;20094;-68
2022/03/24 01:57:39;;;;;;;7.70;4.00;;;;;;;;;;4956990;28;20042;-67
2022/03/24 02:00:06;;;;;;;13.52;7.93;;;;;;;;;;4955518;29;20020;-67
2022/03/24 02:02:41;;;;;;;22.50;10.43;;;;;;;;;;4956648;28;20157;-68
2022/03/24 02:05:08;;;;;;;17.95;9.13;;;;;;;;;;4955431;28;20043;-69
2022/03/24 02:07:37;;;;;;;18.67;9.25;;;;;;;;;;4955458;29;20031;-71
2022/03/24 02:10:08;;;;;;;20.52;10.95;;;;;;;;;;4956338;28;20122;-72
2022/03/24 02:12:34;;;;;;;19.67;9.75;;;;;;;;;;4955651;29;20051;-68
2022/03/24 02:15:01;;;;;;;20.48;10.02;;;;;;;;;;4955596;29;20050;-67
2022/03/24 02:17:30;;;;;;;19.65;10.13;;;;;;;;;;4955503;28;20085;-69
2022/03/24 02:20:00;;;;;;;19.27;8.50;;;;;;;;;;4954708;29;20037;-69
2022/03/24 02:22:27;;;;;;;20.27;9.88;;;;;;;;;;4954678;28;20045;-68
2022/03/24 02:24:54;;;;;;;17.63;7.78;;;;;;;;;;4956260;28;20027;-71
2022/03/24 02:27:24;;;;;;;15.05;7.95;;;;;;;;;;4956292;28;20031;-70
2022/03/24 02:29:51;;;;;;;15.15;8.43;;;;;;;;;;4955222;29;20043;-69
2022/03/24 02:32:18;;;;;;;12.18;6.70;;;;;;;;;;4956464;29;20027;-68
2022/03/24 02:34:48;;;;;;;11.63;5.22;;;;;;;;;;4956549;28;20042;-69
2022/03/24 02:37:17;;;;;;;11.05;4.55;;;;;;;;;;4956260;29;20090;-68
2022/03/24 02:39:49;;;;;;;8.85;4.38;;;;;;;;;;4956550;28;20484;-67
2022/03/24 02:42:17;;;;;;;8.75;4.07;;;;;;;;;;4956376;28;20041;-69
2022/03/24 02:44:44;;;;;;;11.65;4.53;;;;;;;;;;4971373;28;20114;-69
2022/03/24 02:47:11;;;;;;;8.43;4.10;;;;;;;;;;4956363;28;20032;-72
2022/03/24 02:49:38;;;;;;;9.85;4.10;;;;;;;;;;4956549;29;20023;-68
2022/03/24 02:52:05;;;;;;;8.77;3.90;;;;;;;;;;4956391;28;20114;-69
2022/03/24 02:54:32;;;;;;;8.02;4.22;;;;;;;;;;4955905;29;20102;-69
2022/03/24 02:56:58;;;;;;;12.57;4.10;;;;;;;;;;4955723;29;20044;-69
2022/03/24 02:59:25;;;;;;;9.00;4.28;;;;;;;;;;4956015;28;20086;-69
2022/03/24 03:02:02;;;;;;;12.10;4.63;;;;;;;;;;4955172;28;20031;-69
2022/03/24 03:04:31;;;;;;;14.52;5.70;;;;;;;;;;4955270;28;20071;-72
2022/03/24 03:06:58;;;;;;;10.32;4.28;;;;;;;;;;4955373;28;20106;-69
2022/03/24 03:09:25;;;;;;;7.05;4.45;;;;;;;;;;4955706;28;20082;-69
2022/03/24 03:11:52;;;;;;;8.77;4.55;;;;;;;;;;4955709;29;20047;-69
2022/03/24 03:14:19;;;;;;;15.10;5.32;;;;;;;;;;4956007;28;20122;-70
2022/03/24 03:16:46;;;;;;;9.40;4.40;;;;;;;;;;4955735;29;20015;-69
2022/03/24 03:19:13;;;;;;;8.55;4.32;;;;;;;;;;4955929;29;20046;-70
2022/03/24 03:21:40;;;;;;;12.18;4.82;;;;;;;;;;4955944;29;20027;-68
2022/03/24 03:24:08;;;;;;;8.45;4.22;;;;;;;;;;4955531;29;20083;-68
2022/03/24 03:26:34;;;;;;;8.32;4.80;;;;;;;;;;4955430;28;20031;-72
2022/03/24 03:29:00;;;;;;;14.55;4.82;;;;;;;;;;4955545;28;20034;-71
2022/03/24 03:31:28;;;;;;;8.40;5.18;;;;;;;;;;4955418;28;20023;-71
2022/03/24 03:33:54;;;;;;;14.05;4.93;;;;;;;;;;4955177;28;20031;-71
2022/03/24 03:36:22;;;;;;;14.02;4.90;;;;;;;;;;4954694;28;20027;-69
2022/03/24 03:38:48;;;;;;;11.70;5.70;;;;;;;;;;4955063;28;20039;-67
2022/03/24 03:41:15;;;;;;;15.02;6.50;;;;;;;;;;4955067;29;20025;-69
2022/03/24 03:43:42;;;;;;;17.02;6.40;;;;;;;;;;4955038;29;20130;-68
2022/03/24 03:46:09;;;;;;;12.82;6.53;;;;;;;;;;4955293;28;20172;-71
2022/03/24 03:48:37;;;;;;;13.68;6.50;;;;;;;;;;4954610;29;20038;-73
2022/03/24 03:51:03;;;;;;;25.65;7.88;;;;;;;;;;4954892;29;20050;-72
2022/03/24 03:53:29;;;;;;;18.48;6.90;;;;;;;;;;4954929;28;20039;-69
2022/03/24 03:55:55;;;;;;;17.02;6.57;;;;;;;;;;4955103;28;20042;-70
2022/03/24 03:58:21;;;;;;;14.10;6.95;;;;;;;;;;4954775;29;20071;-69
2022/03/24 04:00:52;;;;;;;12.77;6.70;;;;;;;;;;4953696;29;20415;-69
2022/03/24 04:03:19;;;;;;;20.13;8.65;;;;;;;;;;4954425;28;20086;-67
2022/03/24 04:05:45;;;;;;;16.13;7.55;;;;;;;;;;4954819;29;20110;-68
2022/03/24 04:08:12;;;;;;;12.93;6.60;;;;;;;;;;4954652;28;20118;-70
2022/03/24 04:10:39;;;;;;;26.45;8.13;;;;;;;;;;4954579;28;20094;-70
2022/03/24 04:13:05;;;;;;;17.23;8.10;;;;;;;;;;4953462;28;20043;-70
2022/03/24 04:15:33;;;;;;;15.52;6.93;;;;;;;;;;4952614;29;20501;-74
2022/03/24 04:18:00;;;;;;;23.13;7.10;;;;;;;;;;4935070;29;20102;-75
2022/03/24 04:20:26;;;;;;;18.70;7.10;;;;;;;;;;4941798;28;20054;-71
2022/03/24 04:22:54;;;;;;;18.42;7.70;;;;;;;;;;4939512;29;20398;-76
2022/03/24 04:25:21;;;;;;;22.98;7.82;;;;;;;;;;4935071;29;20162;-73
2022/03/24 04:27:48;;;;;;;12.25;6.32;;;;;;;;;;4935221;29;20063;-70
2022/03/24 04:30:16;;;;;;;12.15;6.10;;;;;;;;;;4940854;29;20106;-72
2022/03/24 04:32:42;;;;;;;15.38;6.53;;;;;;;;;;4953993;29;20070;-69
2022/03/24 04:35:09;;;;;;;16.27;6.63;;;;;;;;;;4954136;28;20023;-72
2022/03/24 04:37:36;;;;;;;15.57;6.32;;;;;;;;;;4954198;29;20035;-69
2022/03/24 04:40:03;;;;;;;21.08;8.20;;;;;;;;;;4953735;28;20046;-70
2022/03/24 04:42:29;;;;;;;15.13;7.53;;;;;;;;;;4953488;29;20038;-67
2022/03/24 04:44:56;;;;;;;15.63;6.88;;;;;;;;;;4952612;29;20114;-71
2022/03/24 04:47:22;;;;;;;18.42;7.63;;;;;;;;;;4953053;28;20393;-71
2022/03/24 04:49:48;;;;;;;17.60;7.30;;;;;;;;;;4953797;29;20023;-70
2022/03/24 04:52:14;;;;;;;30.45;8.70;;;;;;;;;;4953774;28;20379;-70
2022/03/24 04:54:39;;;;;;;26.05;8.77;;;;;;;;;;4953858;28;20019;-77
2022/03/24 04:57:06;;;;;;;13.95;6.80;;;;;;;;;;4953789;28;20063;-71
2022/03/24 04:59:32;;;;;;;17.83;8.35;;;;;;;;;;4952361;29;20031;-70
2022/03/24 05:01:58;;;;;;;30.95;9.05;;;;;;;;;;4952870;28;20446;-74
2022/03/24 05:04:24;;;;;;;26.08;9.35;;;;;;;;;;4953453;29;20037;-75
2022/03/24 05:06:51;;;;;;;23.30;8.75;;;;;;;;;;4954957;28;20035;-69
2022/03/24 05:09:17;;;;;;;14.65;7.13;;;;;;;;;;4954242;28;20098;-69
2022/03/24 05:11:44;;;;;;;15.75;7.53;;;;;;;;;;4953672;28;20050;-74
2022/03/24 05:14:10;;;;;;;25.67;9.10;;;;;;;;;;4953265;29;20039;-76
2022/03/24 05:16:36;;;;;;;22.13;11.52;;;;;;;;;;4947041;28;20038;-72
2022/03/24 05:19:03;;;;;;;19.92;10.13;;;;;;;;;;4950285;28;20019;-75
2022/03/24 05:21:31;;;;;;;26.33;9.52;;;;;;;;;;4954413;28;20063;-76
2022/03/24 05:23:57;;;;;;;40.33;11.27;;;;;;;;;;4954556;28;20031;-74
2022/03/24 05:26:24;;;;;;;24.00;9.77;;;;;;;;;;4958552;28;20027;-77
2022/03/24 05:28:51;;;;;;;30.33;9.98;;;;;;;;;;4958433;29;20023;-77
2022/03/24 05:31:17;;;;;;;20.02;9.45;;;;;;;;;;4955982;28;20047;-77
2022/03/24 05:33:44;;;;;;;30.27;8.77;;;;;;;;;;4958261;29;20031;-74
2022/03/24 05:36:11;;;;;;;42.92;10.05;;;;;;;;;;4957850;29;20430;-77
2022/03/24 05:38:37;;;;;;;22.73;9.57;;;;;;;;;;4955192;29;20027;-75
2022/03/24 05:41:04;;;;;;;17.30;8.25;;;;;;;;;;4957511;28;20375;-73
2022/03/24 05:43:30;;;;;;;31.70;8.90;;;;;;;;;;4957510;28;20054;-75
2022/03/24 05:45:56;;;;;;;20.20;8.75;;;;;;;;;;4957409;28;20058;-76
2022/03/24 05:48:22;;;;;;;22.10;7.97;;;;;;;;;;4957585;28;20027;-75
2022/03/24 05:51:07;;;;;;;32.05;9.27;;;;;;;;;;4957482;29;20102;-73
2022/03/24 05:53:33;;;;;;;24.58;8.10;;;;;;;;;;4957608;28;20027;-77
2022/03/24 05:55:58;;;;;;;16.98;7.57;;;;;;;;;;4956545;28;20102;-78
2022/03/24 05:58:24;;;;;;;19.20;8.65;;;;;;;;;;4955577;29;20050;-73
2022/03/24 06:00:50;;;;;;;20.55;8.70;;;;;;;;;;4956819;28;20419;-72
2022/03/24 06:03:17;;;;;;;17.33;7.70;;;;;;;;;;4956544;28;20040;-70
2022/03/24 06:05:44;;;;;;;23.75;8.95;;;;;;;;;;4957183;28;20049;-72
2022/03/24 06:08:11;;;;;;;28.63;7.22;;;;;;;;;;4956997;28;20035;-72
2022/03/24 06:10:37;;;;;;;14.95;7.30;;;;;;;;;;4955915;28;20027;-72
2022/03/24 06:13:04;;;;;;;12.65;6.63;;;;;;;;;;4957071;29;20035;-72
2022/03/24 06:15:30;;;;;;;17.83;7.32;;;;;;;;;;4957203;28;20070;-73
2022/03/24 06:17:56;;;;;;;15.85;6.55;;;;;;;;;;4956377;28;20067;-74
2022/03/24 06:20:22;;;;;;;17.15;7.15;;;;;;;;;;4957078;28;20055;-70
2022/03/24 06:22:52;;;;;;;17.17;7.47;;;;;;;;;;4955632;28;20058;-71
2022/03/24 06:25:19;;;;;;;13.55;7.35;;;;;;;;;;4957145;28;20389;-72
2022/03/24 06:27:49;;;;;;;22.40;9.65;;;;;;;;;;4956999;28;20358;-72
2022/03/24 06:30:16;;;;;;;19.65;9.93;;;;;;;;;;4956863;28;20166;-76
2022/03/24 06:32:42;;;;;;;30.88;10.50;;;;;;;;;;4955307;29;20031;-78
2022/03/24 06:35:11;;;;;;;18.35;9.68;;;;;;;;;;4954657;28;20126;-80
2022/03/24 06:37:40;;;;;;;21.55;9.52;;;;;;;;;;4957068;28;20059;-78
2022/03/24 06:40:11;;;;;;;19.10;9.65;;;;;;;;;;4953816;28;20478;-74
2022/03/24 06:42:37;;;;;;;24.55;11.48;;;;;;;;;;4956996;29;20490;-76
2022/03/24 06:45:07;;;;;;;21.92;10.27;;;;;;;;;;4955589;28;20113;-75
2022/03/24 06:47:34;;;;;;;21.50;10.77;;;;;;;;;;4956732;28;20414;-76
2022/03/24 06:50:00;;;;;;;17.70;9.93;;;;;;;;;;4956511;28;20019;-75
2022/03/24 06:52:25;;;;;;;20.80;11.20;;;;;;;;;;4956309;28;20044;-76
2022/03/24 06:54:51;;;;;;;19.27;10.15;;;;;;;;;;4955800;28;20027;-75
2022/03/24 06:57:17;;;;;;;22.77;10.50;;;;;;;;;;4956100;28;20031;-76
2022/03/24 06:59:44;;;;;;;18.63;9.75;;;;;;;;;;4956372;28;20078;-78
2022/03/24 07:02:10;;;;;;;20.15;9.77;;;;;;;;;;4956419;29;20115;-75
2022/03/24 07:04:36;;;;;;;17.33;8.65;;;;;;;;;;4956101;29;20053;-72
2022/03/24 07:07:04;;;;;;;17.63;8.95;;;;;;;;;;4955916;28;20046;-74
2022/03/24 07:09:30;;;;;;;16.60;8.57;;;;;;;;;;4956122;29;20023;-76
2022/03/24 07:11:56;;;;;;;18.73;7.78;;;;;;;;;;4956192;28;20044;-78
2022/03/24 07:14:23;;;;;;;14.68;7.75;;;;;;;;;;4956237;29;20039;-75
2022/03/24 07:16:49;;;;;;;18.75;8.13;;;;;;;;;;4955809;28;20038;-74
2022/03/24 07:19:16;;;;;;;20.88;8.30;;;;;;;;;;4955565;28;20304;-75
2022/03/24 07:21:42;;;;;;;19.98;8.18;;;;;;;;;;4955752;28;20122;-73
2022/03/24 07:24:07;;;;;;;16.38;7.60;;;;;;;;;;4955086;29;20457;-76
2022/03/24 07:26:34;;;;;;;17.80;8.95;;;;;;;;;;4956000;28;20043;-76
2022/03/24 07:29:00;;;;;;;17.80;8.52;;;;;;;;;;4956187;28;20031;-78
2022/03/24 07:31:26;;;;;;;12.35;7.00;;;;;;;;;;4956137;28;20039;-74
2022/03/24 07:33:55;;;;;;;18.85;8.07;;;;;;;;;;4956622;28;20031;-72
2022/03/24 07:36:22;;;;;;;17.65;7.30;;;;;;;;;;4954782;28;20034;-75
2022/03/24 07:38:52;;;;;;;12.68;6.70;;;;;;;;;;4955399;28;20470;-76
2022/03/24 07:41:18;;;;;;;18.85;7.60;;;;;;;;;;4955298;28;20122;-71
2022/03/24 07:43:44;;;;;;;12.65;7.00;;;;;;;;;;4958840;28;20042;-70
2022/03/24 07:46:11;;;;;;;17.05;6.75;;;;;;;;;;4955426;28;20038;-71
2022/03/24 07:48:38;;;;;;;12.45;6.35;;;;;;;;;;4955266;28;20508;-71
2022/03/24 07:51:05;;;;;;;14.90;6.95;;;;;;;;;;4936175;29;20039;-70
2022/03/24 07:53:49;;;;;;;21.15;7.38;;;;;;;;;;4947130;29;20031;-71
2022/03/24 07:56:21;;;;;;;15.45;7.13;;;;;;;;;;4954742;28;20067;-69
2022/03/24 07:58:47;;;;;;;21.92;7.13;;;;;;;;;;4954784;28;20047;-73
2022/03/24 08:01:13;;;;;;;14.93;7.28;;;;;;;;;;4954574;28;20023;-72
2022/03/24 08:03:39;;;;;;;15.88;9.05;;;;;;;;;;4954626;28;20094;-72
2022/03/24 08:06:05;;;;;;;16.23;8.40;;;;;;;;;;4954649;28;20031;-76
2022/03/24 08:08:31;;;;;;;16.17;8.35;;;;;;;;;;4954431;28;20038;-71
2022/03/24 08:10:58;;;;;;;17.85;7.93;;;;;;;;;;4954371;28;20328;-70
2022/03/24 08:13:25;;;;;;;20.63;8.73;;;;;;;;;;4954449;28;20039;-73
2022/03/24 08:15:51;;;;;;;14.85;7.57;;;;;;;;;;4952716;29;20106;-73
2022/03/24 08:18:18;;;;;;;17.48;8.52;;;;;;;;;;4954038;28;20552;-72
2022/03/24 08:20:49;;;;;;;16.77;8.80;;;;;;;;;;4954479;28;20043;-73
2022/03/24 08:23:15;;;;;;;14.27;7.78;;;;;;;;;;4954055;29;20027;-73
2022/03/24 08:25:44;;;;;;;14.10;7.90;;;;;;;;;;4954652;29;20038;-71
2022/03/24 08:28:10;;;;;;;15.18;7.90;;;;;;;;;;4954828;29;20028;-72
2022/03/24 08:30:37;;;;;;;15.32;8.25;;;;;;;;;;4954517;28;20355;-75
2022/03/24 08:33:03;;;;;;;15.23;8.50;;;;;;;;;;4954794;29;20500;-76
2022/03/24 08:35:29;;;;;;;18.33;8.93;;;;;;;;;;4955147;28;20023;-76
2022/03/24 08:37:55;;;;;;;16.02;8.02;;;;;;;;;;4954845;28;20398;-77
2022/03/24 08:40:22;;;;;;;19.92;9.07;;;;;;;;;;4954457;29;20530;-76
2022/03/24 08:42:48;;;;;;;14.20;8.45;;;;;;;;;;4954784;29;20031;-80
2022/03/24 08:45:15;;;;;;;15.73;8.43;;;;;;;;;;4953516;29;20046;-72
2022/03/24 08:47:42;;;;;;;14.63;8.57;;;;;;;;;;4954265;29;20067;-76
2022/03/24 08:50:10;;;;;;;17.70;8.98;;;;;;;;;;4954888;28;20458;-76
2022/03/24 08:52:36;;;;;;;20.58;9.27;;;;;;;;;;4953851;28;20117;-81
2022/03/24 08:55:06;;;;;;;16.90;8.35;;;;;;;;;;4953020;29;20027;-76
2022/03/24 08:57:34;;;;;;;16.50;8.48;;;;;;;;;;4954159;29;20039;-76
2022/03/24 09:00:03;;;;;;;14.20;8.82;;;;;;;;;;4953835;28;20030;-75
2022/03/24 09:02:30;;;;;;;17.45;9.05;;;;;;;;;;4953659;28;20028;-75
2022/03/24 09:04:56;;;;;;;17.23;8.60;;;;;;;;;;4953651;28;20038;-73
2022/03/24 09:07:22;;;;;;;16.02;9.57;;;;;;;;;;4953861;28;20035;-73
2022/03/24 09:09:48;;;;;;;17.65;8.55;;;;;;;;;;4954103;28;20031;-76
2022/03/24 09:12:14;;;;;;;14.50;8.02;;;;;;;;;;4953814;28;20056;-75
2022/03/24 09:14:41;;;;;;;10.60;7.03;;;;;;;;;;4954259;29;20046;-76
2022/03/24 09:17:08;;;;;;;13.88;7.32;;;;;;;;;;4954839;29;20035;-72
2022/03/24 09:19:35;;;;;;;11.50;6.97;;;;;;;;;;4954124;29;20023;-75
2022/03/24 09:22:04;;;;;;;14.68;7.97;;;;;;;;;;4954044;29;20039;-73
2022/03/24 09:24:30;;;;;;;16.52;8.13;;;;;;;;;;4953865;28;20031;-73
2022/03/24 09:26:55;;;;;;;18.60;8.07;;;;;;;;;;4954620;28;20382;-73
2022/03/24 09:29:22;;;;;;;15.30;7.65;;;;;;;;;;4952718;29;20023;-74
2022/03/24 09:31:49;;;;;;;14.40;6.03;;;;;;;;;;4953846;28;20101;-75
2022/03/24 09:34:14;;;;;;;10.05;5.20;;;;;;;;;;4953604;29;20023;-72
2022/03/24 09:36:40;;;;;;;9.52;5.50;;;;;;;;;;4954146;28;20545;-74
2022/03/24 09:39:08;;;;;;;13.75;4.80;;;;;;;;;;4955196;28;20031;-74
2022/03/24 09:41:36;;;;;;;13.50;4.90;;;;;;;;;;4953734;28;20027;-72
2022/03/24 09:44:03;;;;;;;12.85;5.55;;;;;;;;;;4953569;29;20071;-73
2022/03/24 09:46:30;;;;;;;11.30;5.18;;;;;;;;;;4954021;28;20031;-74
2022/03/24 09:48:57;;;;;;;11.93;5.40;;;;;;;;;;4953737;28;20490;-72
2022/03/24 09:51:25;;;;;;;22.60;6.25;;;;;;;;;;4953553;28;20031;-77
2022/03/24 09:53:51;;;;;;;11.80;6.07;;;;;;;;;;4953656;29;20030;-73
2022/03/24 09:56:18;;;;;;;12.40;5.25;;;;;;;;;;4954375;29;20116;-74
2022/03/24 09:58:44;;;;;;;8.75;4.65;;;;;;;;;;4954590;29;20035;-74
2022/03/24 10:01:13;;;;;;;7.82;3.67;;;;;;;;;;4954622;29;20038;-73
2022/03/24 10:03:59;;;;;;;12.23;4.07;;;;;;;;;;4957786;29;20470;-72
2022/03/24 10:06:25;;;;;;;9.98;4.53;;;;;;;;;;4954094;29;20482;-75
2022/03/24 10:08:51;;;;;;;9.60;4.28;;;;;;;;;;4951656;29;20115;-78
2022/03/24 10:11:17;;;;;;;10.77;4.32;;;;;;;;;;4956357;28;20132;-74
2022/03/24 10:13:45;;;;;;;7.20;3.88;;;;;;;;;;4956590;28;20509;-77
2022/03/24 10:16:32;;;;;;;16.40;6.03;;;;;;;;;;4955620;29;20046;-77
2022/03/24 10:19:06;;;;;;;14.20;4.30;;;;;;;;;;4956605;29;20062;-76
2022/03/24 10:21:35;;;;;;;13.55;4.00;;;;;;;;;;4956375;29;20069;-73
2022/03/24 10:24:21;;;;;;;9.32;3.70;;;;;;;;;;4972014;28;20035;-77
2022/03/24 10:26:59;;;;;;;8.55;4.07;;;;;;;;;;4956759;28;20039;-77
2022/03/24 10:29:29;;;;;;;8.27;3.47;;;;;;;;;;4957068;29;20067;-79
2022/03/24 10:32:17;;;;;;;10.45;3.28;;;;;;;;;;4956834;28;20154;-78
2022/03/24 10:34:48;;;;;;;15.85;4.30;;;;;;;;;;4956804;29;20098;-77
2022/03/24 10:37:17;;;;;;;6.32;3.33;;;;;;;;;;4957011;28;20144;-77
2022/03/24 10:40:10;;;;;;;8.85;3.65;;;;;;;;;;4955569;29;20030;-78
2022/03/24 10:42:38;;;;;;;10.75;3.53;;;;;;;;;;4956394;28;20111;-76
2022/03/24 10:45:17;;;;;;;10.13;4.00;;;;;;;;;;4970471;28;20065;-77
2022/03/24 10:48:00;;;;;;;13.00;3.53;;;;;;;;;;4956195;28;20043;-75
2022/03/24 10:50:30;;;;;;;7.97;3.90;;;;;;;;;;4956543;28;20031;-73
2022/03/24 10:53:08;;;;;;;9.57;3.50;;;;;;;;;;4956632;28;20426;-77
2022/03/24 10:55:50;;;;;;;13.43;3.90;;;;;;;;;;4956431;28;20032;-78
2022/03/24 10:58:31;;;;;;;6.47;3.20;;;;;;;;;;4956082;29;20101;-76
2022/03/24 11:01:06;;;;;;;7.18;2.92;;;;;;;;;;4956262;28;20035;-76
2022/03/24 11:03:32;;;;;;;10.23;3.55;;;;;;;;;;4956485;28;20047;-75
2022/03/24 11:06:18;;;;;;;7.90;3.20;;;;;;;;;;4956495;28;20494;-76
2022/03/24 11:08:51;;;;;;;9.82;3.83;;;;;;;;;;4956243;28;20039;-77
2022/03/24 11:11:17;;;;;;;9.60;3.40;;;;;;;;;;4956038;28;20047;-78
2022/03/24 11:13:46;;;;;;;8.70;3.22;;;;;;;;;;4955939;28;20086;-76
2022/03/24 11:16:12;;;;;;;8.95;3.55;;;;;;;;;;4956403;28;20043;-76
2022/03/24 11:18:39;;;;;;;8.40;3.30;;;;;;;;;;4956263;28;20034;-73
2022/03/24 11:21:12;;;;;;;6.95;3.53;;;;;;;;;;4955018;28;20027;-78
2022/03/24 11:23:40;;;;;;;9.37;4.70;;;;;;;;;;4956476;29;20110;-78
2022/03/24 11:26:08;;;;;;;8.05;3.42;;;;;;;;;;4956494;28;20081;-76
2022/03/24 11:28:37;;;;;;;8.43;4.00;;;;;;;;;;4956284;28;20038;-75
2022/03/24 11:31:07;;;;;;;10.60;3.20;;;;;;;;;;4956062;28;20027;-75
2022/03/24 11:33:48;;;;;;;8.60;4.45;;;;;;;;;;4956030;28;20047;-76
2022/03/24 11:36:21;;;;;;;9.02;3.70;;;;;;;;;;4956047;28;20027;-75
2022/03/24 11:38:53;;;;;;;12.68;4.50;;;;;;;;;;4956160;28;20397;-74
2022/03/24 11:41:27;;;;;;;8.82;3.45;;;;;;;;;;4955996;28;20035;-73
2022/03/24 11:43:57;;;;;;;7.85;3.08;;;;;;;;;;4955627;28;20035;-73
2022/03/24 11:46:52;;;;;;;8.15;3.47;;;;;;;;;;4955958;28;20038;-75
2022/03/24 11:49:21;;;;;;;7.43;3.67;;;;;;;;;;4955857;28;20442;-75
2022/03/24 11:52:09;;;;;;;6.85;3.45;;;;;;;;;;4955465;28;20054;-75
2022/03/24 11:54:36;;;;;;;7.93;3.55;;;;;;;;;;4948281;28;20098;-75
2022/03/24 11:57:36;;;;;;;6.45;3.03;;;;;;;;;;4955555;28;20034;-74
2022/03/24 12:00:12;;;;;;;7.35;3.50;;;;;;;;;;4954178;29;20039;-76
2022/03/24 12:02:38;;;;;;;9.65;3.38;;;;;;;;;;4955258;28;20047;-75
2022/03/24 12:05:05;;;;;;;10.52;3.15;;;;;;;;;;4955344;28;20055;-76
2022/03/24 12:07:31;;;;;;;8.07;3.33;;;;;;;;;;4955512;28;20038;-75
2022/03/24 12:10:09;;;;;;;6.55;3.30;;;;;;;;;;4955577;28;20023;-76
2022/03/24 12:12:36;;;;;;;8.82;3.88;;;;;;;;;;4955576;28;20043;-73
2022/03/24 12:15:10;;;;;;;8.98;3.58;;;;;;;;;;4955148;28;20031;-76
2022/03/24 12:17:36;;;;;;;6.40;3.40;;;;;;;;;;4953977;28;20039;-73
2022/03/24 12:20:22;;;;;;;8.15;3.42;;;;;;;;;;4950932;29;20059;-73
2022/03/24 12:22:48;;;;;;;9.68;3.22;;;;;;;;;;4954375;28;20059;-75
2022/03/24 12:25:17;;;;;;;8.95;3.22;;;;;;;;;;4952631;29;20451;-76
2022/03/24 12:27:57;;;;;;;8.65;3.50;;;;;;;;;;4945707;28;20043;-74
2022/03/24 12:30:24;;;;;;;10.00;3.38;;;;;;;;;;4952848;29;20031;-73
2022/03/24 12:33:07;;;;;;;6.50;3.08;;;;;;;;;;4953473;28;20031;-73
2022/03/24 12:35:51;;;;;;;7.45;3.83;;;;;;;;;;4953986;28;20492;-76
2022/03/24 12:38:20;;;;;;;9.00;4.45;;;;;;;;;;4954494;29;20121;-76
2022/03/24 12:41:07;;;;;;;6.93;3.88;;;;;;;;;;4954501;29;20099;-79
2022/03/24 12:43:58;;;;;;;8.50;4.57;;;;;;;;;;4954387;29;20055;-78
2022/03/24 12:46:33;;;;;;;6.05;2.63;;;;;;;;;;4950553;29;20056;-76
2022/03/24 12:49:06;;;;;;;10.80;4.85;;;;;;;;;;4953841;28;20487;-75
2022/03/24 12:51:32;;;;;;;9.27;3.55;;;;;;;;;;4952857;29;20259;-74
2022/03/24 12:54:14;;;;;;;8.38;4.15;;;;;;;;;;4953905;29;20042;-74
2022/03/24 12:56:42;;;;;;;15.70;4.68;;;;;;;;;;4954128;29;20038;-76
2022/03/24 12:59:10;;;;;;;6.45;4.32;;;;;;;;;;4954164;29;20110;-76
2022/03/24 13:01:40;;;;;;;8.52;3.80;;;;;;;;;;4954303;28;20059;-73
2022/03/24 13:04:09;;;;;;;8.23;3.20;;;;;;;;;;4952173;29;20028;-72
2022/03/24 13:06:39;;;;;;;8.68;3.90;;;;;;;;;;4950378;28;20031;-75
2022/03/24 13:09:13;;;;;;;10.20;3.58;;;;;;;;;;4954164;28;20359;-78
2022/03/24 13:11:56;;;;;;;8.50;3.38;;;;;;;;;;4952840;28;20398;-73
2022/03/24 13:14:23;;;;;;;8.15;3.53;;;;;;;;;;4953916;29;20091;-74
2022/03/24 13:17:07;;;;;;;7.47;3.58;;;;;;;;;;4953401;29;20027;-75
2022/03/24 13:19:36;;;;;;;12.80;3.65;;;;;;;;;;4953746;28;20525;-77
2022/03/24 13:22:19;;;;;;;9.27;3.85;;;;;;;;;;4952632;28;20378;-75
2022/03/24 13:24:59;;;;;;;9.20;3.95;;;;;;;;;;4951974;29;20490;-78
2022/03/24 13:27:27;;;;;;;9.57;3.78;;;;;;;;;;4952295;29;20036;-73
2022/03/24 13:29:53;;;;;;;5.75;3.00;;;;;;;;;;4953623;29;20024;-75
2022/03/24 13:32:21;;;;;;;9.38;3.63;;;;;;;;;;4952057;29;20049;-74
2022/03/24 13:34:51;;;;;;;10.18;3.40;;;;;;;;;;4953646;29;20545;-73
2022/03/24 13:37:20;;;;;;;11.48;3.83;;;;;;;;;;4953978;28;20406;-75
2022/03/24 13:39:57;;;;;;;8.75;3.67;;;;;;;;;;4954062;28;20381;-74
2022/03/24 13:42:25;;;;;;;7.90;4.13;;;;;;;;;;4949615;28;20101;-78
2022/03/24 13:44:53;;;;;;;6.82;3.55;;;;;;;;;;4954672;28;20045;-74
2022/03/24 13:47:23;;;;;;;9.45;3.72;;;;;;;;;;4957815;29;20050;-75
2022/03/24 13:50:05;;;;;;;10.25;3.97;;;;;;;;;;4956374;29;20040;-78
2022/03/24 13:52:35;;;;;;;7.70;3.65;;;;;;;;;;4957333;29;20509;-76
2022/03/24 13:55:11;;;;;;;7.55;3.53;;;;;;;;;;4957432;28;20433;-77
2022/03/24 13:57:52;;;;;;;9.20;4.28;;;;;;;;;;4957628;28;20141;-76
2022/03/24 14:00:26;;;;;;;9.40;3.60;;;;;;;;;;4951365;28;20035;-75
2022/03/24 14:03:02;;;;;;;8.63;3.92;;;;;;;;;;4955164;29;20039;-77
2022/03/24 14:05:46;;;;;;;11.95;4.05;;;;;;;;;;4951910;29;20044;-78
2022/03/24 14:08:17;;;;;;;8.45;4.45;;;;;;;;;;4945507;28;20043;-78
2022/03/24 14:10:48;;;;;;;8.30;3.92;;;;;;;;;;4955594;28;20116;-78
2022/03/24 14:13:26;;;;;;;10.40;3.42;;;;;;;;;;4955724;28;20046;-77
2022/03/24 14:16:27;;;;;;;7.30;3.88;;;;;;;;;;4953548;28;20423;-76
2022/03/24 14:19:18;;;;;;;9.88;3.53;;;;;;;;;;4961067;28;20038;-79
2022/03/24 14:21:58;;;;;;;9.32;3.60;;;;;;;;;;4956135;29;20149;-76
2022/03/24 14:24:43;;;;;;;9.80;3.97;;;;;;;;;;4954251;29;20039;-78
2022/03/24 14:27:19;;;;;;;9.88;3.70;;;;;;;;;;4954698;28;20035;-76
2022/03/24 14:30:15;;;;;;;7.88;3.67;;;;;;;;;;4955767;29;20474;-75
2022/03/24 14:32:48;;;;;;;8.32;4.03;;;;;;;;;;4954205;28;20035;-75
2022/03/24 14:35:23;;;;;;;6.93;3.45;;;;;;;;;;4953956;29;20066;-77
2022/03/24 14:37:53;;;;;;;8.98;3.85;;;;;;;;;;4955493;28;20401;-76
2022/03/24 14:40:32;;;;;;;20.20;4.03;;;;;;;;;;4951656;28;20046;-77
2022/03/24 14:43:00;;;;;;;9.57;3.90;;;;;;;;;;4935858;29;20055;-80
2022/03/24 14:45:27;;;;;;;6.25;3.65;;;;;;;;;;4947093;28;20031;-75